Time,TemperatureF,DewpointF,PressureIn,WindDirection,WindDirectionDegrees,WindSpeedMPH,WindSpeedGustMPH,Humidity,HourlyPrecipIn,Conditions,Clouds,dailyrainin,SoftwareType,DateUTC
2015-02-28 09:53:00,69.5,10.5,30.20,East,90,4.7,4.7,1,0.00,,,0.00,WUHU216HW,2015-02-28 14:53:00,
2015-02-28 09:58:00,70.0,11.0,30.20,NNE,23,3.4,6.3,1,0.00,,,0.00,WUHU216HW,2015-02-28 14:58:00,
2015-02-28 10:03:00,70.6,11.3,30.21,NE,45,0.7,6.3,1,0.00,,,0.00,WUHU216HW,2015-02-28 15:03:00,
2015-02-28 10:08:00,71.3,12.0,30.21,ESE,113,6.3,6.3,1,0.00,,,0.00,WUHU216HW,2015-02-28 15:08:00,
2015-02-28 10:13:00,71.8,12.4,30.21,ESE,113,4.5,6.3,1,0.00,,,0.00,WUHU216HW,2015-02-28 15:13:00,
2015-02-28 10:18:00,72.5,13.0,30.21,ENE,68,1.8,4.5,1,0.00,,,0.00,WUHU216HW,2015-02-28 15:18:00,
2015-02-28 10:23:00,73.1,13.4,30.21,SSE,158,1.1,3.8,1,0.00,,,0.00,WUHU216HW,2015-02-28 15:23:00,
2015-02-28 10:28:00,73.4,13.7,30.22,ENE,68,2.5,4.7,1,0.00,,,0.00,WUHU216HW,2015-02-28 15:28:00,
2015-02-28 10:33:00,73.4,13.7,30.22,ESE,113,0.4,4.7,1,0.00,,,0.00,WUHU216HW,2015-02-28 15:33:00,
2015-02-28 10:38:00,73.6,13.8,30.22,East,90,0.4,5.4,1,0.00,,,0.00,WUHU216HW,2015-02-28 15:38:00,
2015-02-28 10:43:00,73.4,13.7,30.22,ENE,68,5.1,5.4,1,0.00,,,0.00,WUHU216HW,2015-02-28 15:43:00,
2015-02-28 10:48:00,73.4,13.7,30.21,SSE,158,3.6,5.1,1,0.00,,,0.00,WUHU216HW,2015-02-28 15:48:00,
2015-02-28 10:53:00,73.6,13.8,30.22,SE,135,3.6,4.9,1,0.00,,,0.00,WUHU216HW,2015-02-28 15:53:00,
2015-02-28 10:58:00,74.2,14.2,30.21,East,90,4.0,4.9,1,0.00,,,0.00,WUHU216HW,2015-02-28 15:58:00,
2015-02-28 11:03:00,74.2,14.2,30.22,ESE,113,4.0,6.5,1,0.00,,,0.00,WUHU216HW,2015-02-28 16:03:00,
2015-02-28 11:08:00,74.9,14.7,30.22,East,90,4.9,6.5,1,0.00,,,0.00,WUHU216HW,2015-02-28 16:08:00,
2015-02-28 11:13:00,75.2,14.9,30.21,ESE,113,3.1,6.0,1,0.00,,,0.00,WUHU216HW,2015-02-28 16:13:00,
2015-02-28 11:18:00,75.2,14.9,30.21,ESE,113,1.3,6.0,1,0.00,,,0.00,WUHU216HW,2015-02-28 16:18:00,
2015-02-28 11:23:00,75.6,15.2,30.21,ESE,113,1.6,2.9,1,0.00,,,0.00,WUHU216HW,2015-02-28 16:23:00,
2015-02-28 11:28:00,76.0,15.5,30.21,SE,135,2.2,4.9,2,0.00,,,0.00,WUHU216HW,2015-02-28 16:28:00,
2015-02-28 11:33:00,76.1,15.7,30.21,SE,135,6.0,6.0,3,0.00,,,0.00,WUHU216HW,2015-02-28 16:33:00,
2015-02-28 11:38:00,76.3,15.9,30.20,ESE,113,4.0,6.0,1,0.00,,,0.00,WUHU216HW,2015-02-28 16:38:00,
2015-02-28 11:43:00,76.7,16.1,30.20,ESE,113,2.0,5.4,1,0.00,,,0.00,WUHU216HW,2015-02-28 16:43:00,
2015-02-28 11:48:00,77.2,16.5,30.20,NE,45,3.1,5.4,7,0.00,,,0.00,WUHU216HW,2015-02-28 16:48:00,
2015-02-28 11:53:00,77.4,16.7,30.20,ENE,68,0.9,3.1,3,0.00,,,0.00,WUHU216HW,2015-02-28 16:53:00,
2015-02-28 11:58:00,77.8,16.9,30.20,ESE,113,2.5,3.1,7,0.00,,,0.00,WUHU216HW,2015-02-28 16:58:00,
2015-02-28 12:03:00,78.3,22.2,30.19,East,90,1.1,5.1,13,0.00,,,0.00,WUHU216HW,2015-02-28 17:03:00,
2015-02-28 12:08:00,78.8,29.3,30.19,ESE,113,3.4,5.1,17,0.00,,,0.00,WUHU216HW,2015-02-28 17:08:00,
2015-02-28 12:13:00,79.4,43.3,30.19,ESE,113,1.1,4.0,28,0.00,,,0.00,WUHU216HW,2015-02-28 17:13:00,
2015-02-28 12:18:00,79.9,45.8,30.18,ENE,68,4.3,4.3,30,0.00,,,0.00,WUHU216HW,2015-02-28 17:18:00,
2015-02-28 12:23:00,80.3,46.9,30.18,NNE,23,3.1,4.3,31,0.00,,,0.00,WUHU216HW,2015-02-28 17:23:00,
2015-02-28 12:28:00,80.1,41.8,30.18,ESE,113,2.0,4.3,26,0.00,,,0.00,WUHU216HW,2015-02-28 17:28:00,
2015-02-28 12:33:00,80.5,50.1,30.18,SE,135,1.6,4.3,35,0.00,,,0.00,WUHU216HW,2015-02-28 17:33:00,
2015-02-28 12:38:00,80.6,45.4,30.18,ESE,113,1.3,4.0,29,0.00,,,0.00,WUHU216HW,2015-02-28 17:38:00,
2015-02-28 12:43:00,80.6,45.4,30.18,ESE,113,2.7,4.0,29,0.00,,,0.00,WUHU216HW,2015-02-28 17:43:00,
2015-02-28 12:48:00,81.0,44.6,30.18,SSE,158,0.4,2.7,28,0.00,,,0.00,WUHU216HW,2015-02-28 17:48:00,
2015-02-28 12:53:00,81.7,54.4,30.17,ESE,113,2.5,6.3,39,0.00,,,0.00,WUHU216HW,2015-02-28 17:53:00,
2015-02-28 12:58:00,81.7,55.2,30.17,East,90,0.4,6.3,40,0.00,,,0.00,WUHU216HW,2015-02-28 17:58:00,
2015-02-28 13:03:00,81.9,54.6,30.17,SE,135,1.1,3.4,39,0.00,,,0.00,WUHU216HW,2015-02-28 18:03:00,
2015-02-28 13:08:00,82.3,56.9,30.17,SSE,158,2.9,3.4,42,0.00,,,0.00,WUHU216HW,2015-02-28 18:08:00,
2015-02-28 13:13:00,82.3,56.9,30.17,ESE,113,2.5,3.4,42,0.00,,,0.00,WUHU216HW,2015-02-28 18:13:00,
2015-02-28 13:18:00,82.6,56.6,30.16,East,90,2.7,2.7,41,0.00,,,0.00,WUHU216HW,2015-02-28 18:18:00,
2015-02-28 13:23:00,82.8,56.7,30.16,ESE,113,1.8,2.7,41,0.00,,,0.00,WUHU216HW,2015-02-28 18:23:00,
2015-02-28 13:28:00,83.2,57.7,30.16,SSE,158,0.4,2.5,42,0.00,,,0.00,WUHU216HW,2015-02-28 18:28:00,
2015-02-28 13:33:00,83.5,56.8,30.15,SSE,158,1.1,2.7,40,0.00,,,0.00,WUHU216HW,2015-02-28 18:33:00,
2015-02-28 13:38:00,83.9,54.7,30.15,SSE,158,2.5,2.7,37,0.00,,,0.00,WUHU216HW,2015-02-28 18:38:00,
2015-02-28 13:43:00,84.6,63.5,30.15,NW,315,0.7,2.5,49,0.00,,,0.00,WUHU216HW,2015-02-28 18:43:00,
2015-02-28 13:48:00,84.8,64.2,30.15,SSE,158,1.1,2.5,50,0.00,,,0.00,WUHU216HW,2015-02-28 18:48:00,
2015-02-28 13:53:00,84.4,60.8,30.15,SSE,158,1.8,1.8,45,0.00,,,0.00,WUHU216HW,2015-02-28 18:53:00,
2015-02-28 13:58:00,84.6,59.1,30.14,SSE,158,1.3,3.6,42,0.00,,,0.00,WUHU216HW,2015-02-28 18:58:00,
2015-02-28 14:03:00,85.0,58.7,30.14,ESE,113,5.6,5.6,41,0.00,,,0.00,WUHU216HW,2015-02-28 19:03:00,
2015-02-28 14:08:00,85.1,63.9,30.14,NNE,23,3.6,5.6,49,0.00,,,0.00,WUHU216HW,2015-02-28 19:08:00,
2015-02-28 14:13:00,84.6,61.6,30.14,SW,225,2.2,3.6,46,0.00,,,0.00,WUHU216HW,2015-02-28 19:13:00,
2015-02-28 14:18:00,84.6,64.1,30.14,West,270,3.4,3.4,50,0.00,,,0.00,WUHU216HW,2015-02-28 19:18:00,
2015-02-28 14:23:00,84.1,62.3,30.14,WSW,248,1.1,3.8,48,0.00,,,0.00,WUHU216HW,2015-02-28 19:23:00,
2015-02-28 14:28:00,83.9,60.8,30.14,WSW,248,1.1,3.8,46,0.00,,,0.00,WUHU216HW,2015-02-28 19:28:00,
2015-02-28 14:33:00,83.9,59.6,30.14,WSW,248,2.5,2.5,44,0.00,,,0.00,WUHU216HW,2015-02-28 19:33:00,
2015-02-28 14:38:00,83.9,60.8,30.14,South,180,0.4,2.5,46,0.00,,,0.00,WUHU216HW,2015-02-28 19:38:00,
2015-02-28 14:43:00,83.5,60.5,30.14,SW,225,1.3,2.9,46,0.00,,,0.00,WUHU216HW,2015-02-28 19:43:00,
2015-02-28 14:48:00,83.5,61.1,30.13,SW,225,3.4,3.4,47,0.00,,,0.00,WUHU216HW,2015-02-28 19:48:00,
2015-02-28 14:53:00,83.5,61.1,30.13,WNW,293,0.7,3.4,47,0.00,,,0.00,WUHU216HW,2015-02-28 19:53:00,
2015-02-28 14:58:00,83.5,61.7,30.14,WSW,248,2.5,2.5,48,0.00,,,0.00,WUHU216HW,2015-02-28 19:58:00,
2015-02-28 15:03:00,83.3,59.8,30.13,South,180,1.1,4.9,45,0.00,,,0.00,WUHU216HW,2015-02-28 20:03:00,
2015-02-28 15:08:00,83.3,60.3,30.13,West,270,1.8,4.9,46,0.00,,,0.00,WUHU216HW,2015-02-28 20:08:00,
2015-02-28 15:13:00,83.2,60.8,30.13,NW,315,3.6,3.6,47,0.00,,,0.00,WUHU216HW,2015-02-28 20:13:00,
2015-02-28 15:18:00,82.8,59.9,30.13,West,270,1.6,3.6,46,0.00,,,0.00,WUHU216HW,2015-02-28 20:18:00,
2015-02-28 15:23:00,83.0,60.0,30.13,West,270,1.6,3.6,46,0.00,,,0.00,WUHU216HW,2015-02-28 20:23:00,
2015-02-28 15:28:00,83.2,60.1,30.13,WNW,293,3.4,3.4,46,0.00,,,0.00,WUHU216HW,2015-02-28 20:28:00,
2015-02-28 15:33:00,83.3,60.9,30.13,NW,315,1.1,4.0,47,0.00,,,0.00,WUHU216HW,2015-02-28 20:33:00,
2015-02-28 15:38:00,83.2,60.8,30.13,West,270,0.9,4.0,47,0.00,,,0.00,WUHU216HW,2015-02-28 20:38:00,
2015-02-28 15:43:00,83.0,60.6,30.13,NNE,23,2.0,4.0,47,0.00,,,0.00,WUHU216HW,2015-02-28 20:43:00,
2015-02-28 15:48:00,82.4,59.5,30.13,SW,225,3.1,3.4,46,0.00,,,0.00,WUHU216HW,2015-02-28 20:48:00,
2015-02-28 15:53:00,82.4,59.5,30.13,SSW,203,2.7,3.4,46,0.00,,,0.00,WUHU216HW,2015-02-28 20:53:00,
2015-02-28 15:58:00,82.1,59.1,30.14,WSW,248,1.8,2.9,46,0.00,,,0.00,WUHU216HW,2015-02-28 20:58:00,
2015-02-28 16:03:00,81.4,58.5,30.14,NW,315,1.1,2.9,46,0.00,,,0.00,WUHU216HW,2015-02-28 21:03:00,
2015-02-28 16:08:00,81.0,57.0,30.13,NW,315,3.1,3.1,44,0.00,,,0.00,WUHU216HW,2015-02-28 21:08:00,
2015-02-28 16:13:00,80.6,56.6,30.14,NW,315,0.2,3.1,44,0.00,,,0.00,WUHU216HW,2015-02-28 21:13:00,
2015-02-28 16:18:00,80.3,55.7,30.14,NW,315,3.1,3.1,43,0.00,,,0.00,WUHU216HW,2015-02-28 21:18:00,
2015-02-28 16:23:00,78.8,46.4,30.15,ESE,113,2.9,11.2,32,0.00,,,0.00,WUHU216HW,2015-02-28 21:23:00,
2015-02-28 16:28:00,76.0,46.8,30.15,SW,225,3.6,11.2,36,0.00,,,0.00,WUHU216HW,2015-02-28 21:28:00,
2015-02-28 16:33:00,72.7,41.6,30.15,NNW,338,0.9,5.6,33,0.08,,,0.08,WUHU216HW,2015-02-28 21:33:00,
2015-02-28 16:38:00,71.6,12.2,30.15,NE,45,3.6,6.9,1,0.16,,,0.13,WUHU216HW,2015-02-28 21:38:00,
2015-02-28 16:43:00,71.5,12.1,30.15,ENE,68,1.8,6.9,1,0.18,,,0.18,WUHU216HW,2015-02-28 21:43:00,
2015-02-28 16:48:00,71.3,12.0,30.16,ENE,68,2.5,4.5,1,0.19,,,0.19,WUHU216HW,2015-02-28 21:48:00,
2015-02-28 16:53:00,70.6,11.3,30.16,ENE,68,2.5,5.1,1,0.19,,,0.19,WUHU216HW,2015-02-28 21:53:00,
2015-02-28 16:58:00,70.2,11.1,30.17,ENE,68,1.6,5.1,1,0.19,,,0.19,WUHU216HW,2015-02-28 21:58:00,
2015-02-28 17:03:00,69.7,10.7,30.17,ESE,113,6.5,6.5,1,0.19,,,0.19,WUHU216HW,2015-02-28 22:03:00,
2015-02-28 17:08:00,69.5,10.5,30.17,ESE,113,3.6,6.9,1,0.20,,,0.20,WUHU216HW,2015-02-28 22:08:00,
2015-02-28 17:13:00,69.5,10.5,30.18,South,180,3.6,6.9,1,0.21,,,0.21,WUHU216HW,2015-02-28 22:13:00,
2015-02-28 17:18:00,69.3,10.5,30.18,East,90,0.9,4.7,1,0.23,,,0.22,WUHU216HW,2015-02-28 22:18:00,
2015-02-28 17:23:00,68.8,10.1,30.18,ESE,113,0.4,4.7,1,0.24,,,0.24,WUHU216HW,2015-02-28 22:23:00,
2015-02-28 17:28:00,68.6,9.9,30.18,NE,45,2.0,4.7,1,0.25,,,0.25,WUHU216HW,2015-02-28 22:28:00,
2015-02-28 17:33:00,68.8,10.1,30.19,East,90,0.7,3.6,1,0.14,,,0.26,WUHU216HW,2015-02-28 22:33:00,
2015-02-28 17:38:00,68.8,10.1,30.18,ESE,113,1.1,2.0,1,0.09,,,0.27,WUHU216HW,2015-02-28 22:38:00,
2015-02-28 17:43:00,68.6,9.9,30.19,North,0,0.7,2.5,1,0.09,,,0.28,WUHU216HW,2015-02-28 22:43:00,
2015-02-28 17:48:00,68.8,10.1,30.19,East,90,0.0,2.5,1,0.09,,,0.28,WUHU216HW,2015-02-28 22:48:00,
2015-02-28 17:53:00,68.9,10.2,30.19,East,90,0.4,0.9,1,0.10,,,0.29,WUHU216HW,2015-02-28 22:53:00,
2015-02-28 17:58:00,69.3,10.5,30.19,ENE,68,0.0,1.6,1,0.10,,,0.29,WUHU216HW,2015-02-28 22:58:00,
2015-02-28 18:03:00,69.5,10.5,30.19,SE,135,0.7,2.0,1,0.10,,,0.29,WUHU216HW,2015-02-28 23:03:00,
2015-02-28 18:08:00,69.8,10.8,30.18,SE,135,0.9,2.0,1,0.10,,,0.30,WUHU216HW,2015-02-28 23:08:00,
2015-02-28 18:13:00,70.0,11.0,30.19,ESE,113,0.4,1.8,1,0.09,,,0.31,WUHU216HW,2015-02-28 23:13:00,
2015-02-28 18:18:00,70.2,11.1,30.18,SE,135,0.4,1.8,1,0.07,,,0.31,WUHU216HW,2015-02-28 23:18:00,
2015-02-28 18:23:00,70.2,11.1,30.18,SE,135,1.1,1.1,1,0.06,,,0.31,WUHU216HW,2015-02-28 23:23:00,
2015-02-28 18:28:00,70.2,11.1,30.18,SE,135,1.6,1.6,1,0.07,,,0.32,WUHU216HW,2015-02-28 23:28:00,
2015-02-28 18:33:00,70.2,11.1,30.17,ESE,113,1.1,1.8,1,0.05,,,0.32,WUHU216HW,2015-02-28 23:33:00,
2015-02-28 18:38:00,70.0,11.0,30.18,ESE,113,1.3,2.2,1,0.04,,,0.32,WUHU216HW,2015-02-28 23:38:00,
2015-02-28 18:43:00,69.8,10.8,30.18,NNE,23,1.6,2.2,1,0.05,,,0.32,WUHU216HW,2015-02-28 23:43:00,
2015-02-28 18:48:00,69.7,10.7,30.19,ENE,68,0.0,1.8,1,0.05,,,0.33,WUHU216HW,2015-02-28 23:48:00,
2015-02-28 18:53:00,69.3,10.5,30.19,NNE,23,2.5,2.5,1,0.04,,,0.33,WUHU216HW,2015-02-28 23:53:00,
2015-02-28 18:58:00,68.8,10.1,30.19,East,90,0.4,2.5,1,0.04,,,0.33,WUHU216HW,2015-02-28 23:58:00,
2015-02-28 19:03:00,68.6,9.9,30.19,East,90,0.4,1.6,1,0.04,,,0.33,WUHU216HW,2015-03-01 00:03:00,
2015-02-28 19:08:00,68.6,9.9,30.20,NE,45,0.0,1.1,1,0.03,,,0.33,WUHU216HW,2015-03-01 00:08:00,
2015-02-28 19:13:00,68.6,9.9,30.20,ENE,68,0.2,1.1,1,0.02,,,0.33,WUHU216HW,2015-03-01 00:13:00,
2015-02-28 19:18:00,68.6,9.9,30.20,NE,45,0.0,2.7,1,0.02,,,0.33,WUHU216HW,2015-03-01 00:18:00,
2015-02-28 19:23:00,68.2,9.6,30.20,SE,135,3.1,3.1,1,0.01,,,0.33,WUHU216HW,2015-03-01 00:23:00,
2015-02-28 19:28:00,67.9,9.4,30.20,NNE,23,2.2,3.8,1,0.01,,,0.33,WUHU216HW,2015-03-01 00:28:00,
2015-02-28 19:32:00,67.7,9.3,30.21,NNE,23,1.8,3.8,1,0.01,,,0.33,WUHU216HW,2015-03-01 00:32:00,
2015-02-28 19:38:00,67.7,9.3,30.21,East,90,2.0,2.0,1,0.01,,,0.33,WUHU216HW,2015-03-01 00:38:00,
2015-02-28 19:42:00,67.5,9.1,30.21,North,0,0.4,2.0,1,0.00,,,0.33,WUHU216HW,2015-03-01 00:42:00,
2015-02-28 19:47:00,67.5,9.1,30.21,East,90,0.7,1.8,1,0.00,,,0.33,WUHU216HW,2015-03-01 00:47:00,
2015-02-28 19:52:00,67.3,9.0,30.21,North,0,1.3,1.8,1,0.00,,,0.33,WUHU216HW,2015-03-01 00:52:00,
2015-02-28 19:57:00,67.3,9.0,30.22,NE,45,2.9,2.9,1,0.00,,,0.33,WUHU216HW,2015-03-01 00:57:00,
2015-02-28 20:02:00,67.1,8.8,30.22,ENE,68,1.1,2.9,1,0.00,,,0.33,WUHU216HW,2015-03-01 01:02:00,
2015-02-28 20:07:00,67.0,8.6,30.22,North,0,1.8,2.9,1,0.00,,,0.33,WUHU216HW,2015-03-01 01:07:00,
2015-02-28 20:12:00,67.0,8.6,30.22,NNE,23,2.5,2.5,1,0.00,,,0.33,WUHU216HW,2015-03-01 01:12:00,
2015-02-28 20:17:00,67.0,8.6,30.22,NNE,23,2.0,2.5,1,0.00,,,0.33,WUHU216HW,2015-03-01 01:17:00,
2015-02-28 20:22:00,66.8,8.6,30.22,NE,45,1.1,2.2,1,0.00,,,0.33,WUHU216HW,2015-03-01 01:22:00,
2015-02-28 20:27:00,66.8,8.6,30.22,ENE,68,2.0,2.2,1,0.00,,,0.33,WUHU216HW,2015-03-01 01:27:00,
2015-02-28 20:32:00,66.6,8.4,30.22,NE,45,0.2,2.0,1,0.00,,,0.33,WUHU216HW,2015-03-01 01:32:00,
2015-02-28 20:37:00,66.6,8.4,30.22,NE,45,1.6,1.6,1,0.00,,,0.33,WUHU216HW,2015-03-01 01:37:00,
2015-02-28 20:42:00,66.6,8.4,30.23,ENE,68,1.1,2.0,1,0.00,,,0.33,WUHU216HW,2015-03-01 01:42:00,
2015-02-28 20:47:00,66.4,8.3,30.23,NNE,23,2.5,2.5,1,0.00,,,0.33,WUHU216HW,2015-03-01 01:47:00,
2015-02-28 20:52:00,66.4,8.3,30.23,NNE,23,1.3,2.7,1,0.00,,,0.33,WUHU216HW,2015-03-01 01:52:00,
2015-02-28 20:57:00,66.2,8.1,30.23,NE,45,1.8,2.7,1,0.00,,,0.33,WUHU216HW,2015-03-01 01:57:00,
2015-02-28 21:02:00,66.2,8.1,30.23,NE,45,2.7,2.7,1,0.00,,,0.33,WUHU216HW,2015-03-01 02:02:00,
2015-02-28 21:07:00,66.2,8.1,30.23,NNE,23,1.1,2.7,1,0.00,,,0.33,WUHU216HW,2015-03-01 02:07:00,
2015-02-28 21:12:00,66.2,8.1,30.23,NE,45,1.6,2.7,1,0.00,,,0.33,WUHU216HW,2015-03-01 02:12:00,
2015-02-28 21:17:00,66.2,8.1,30.23,NNE,23,2.9,3.4,1,0.00,,,0.33,WUHU216HW,2015-03-01 02:17:00,
2015-02-28 21:22:00,66.2,8.1,30.23,NE,45,0.4,3.4,1,0.00,,,0.33,WUHU216HW,2015-03-01 02:22:00,
2015-02-28 21:27:00,66.4,8.3,30.23,North,0,0.2,3.1,1,0.00,,,0.33,WUHU216HW,2015-03-01 02:27:00,
2015-02-28 21:32:00,66.4,8.3,30.23,NNE,23,0.7,1.1,1,0.00,,,0.33,WUHU216HW,2015-03-01 02:32:00,
2015-02-28 21:37:00,66.6,8.4,30.23,North,0,0.7,1.8,1,0.00,,,0.33,WUHU216HW,2015-03-01 02:37:00,
2015-02-28 21:42:00,66.6,8.4,30.23,NE,45,2.5,2.5,1,0.00,,,0.33,WUHU216HW,2015-03-01 02:42:00,
2015-02-28 21:47:00,66.6,8.4,30.24,NNE,23,2.7,3.1,1,0.00,,,0.33,WUHU216HW,2015-03-01 02:47:00,
2015-02-28 21:52:00,66.8,8.6,30.24,NE,45,1.6,3.6,1,0.00,,,0.33,WUHU216HW,2015-03-01 02:52:00,
2015-02-28 21:57:00,66.8,8.6,30.24,NNE,23,1.8,3.6,1,0.00,,,0.33,WUHU216HW,2015-03-01 02:57:00,
2015-02-28 22:02:00,66.8,8.6,30.24,North,0,1.3,2.9,1,0.00,,,0.33,WUHU216HW,2015-03-01 03:02:00,
2015-02-28 22:07:00,66.8,8.6,30.24,NE,45,2.5,2.5,1,0.00,,,0.33,WUHU216HW,2015-03-01 03:07:00,
2015-02-28 22:12:00,67.0,8.6,30.24,NNE,23,1.6,3.4,1,0.00,,,0.33,WUHU216HW,2015-03-01 03:12:00,
2015-02-28 22:17:00,67.0,8.6,30.25,NE,45,2.0,3.4,1,0.00,,,0.33,WUHU216HW,2015-03-01 03:17:00,
2015-02-28 22:22:00,67.1,8.8,30.25,ENE,68,1.1,3.6,1,0.00,,,0.33,WUHU216HW,2015-03-01 03:22:00,
2015-02-28 22:27:00,67.1,8.8,30.25,NE,45,4.0,4.0,1,0.00,,,0.33,WUHU216HW,2015-03-01 03:27:00,